Hovedside
METAR-TAF:

METAR-TAF

Lufthavner :

Linköping lufthavn

Linköping, Sverige

breddegrad: 58-24N, lengdegrad: 015-41E, høyde over havet: 52 m

Gjeldene værobservasjon

Denne rapporten ble laget for 41 minutter siden, klokken 15:20 UTC
Vind 4 kt fra Nordvest, skiftende mellom Vest-sørvest og Nordøst
Temperatur 24°C
Luftfuktighet 44%
Trykk 1018 hPa
Sikt 10 km eller mer
ingen skyer under 1500 m og ingen bygeskyer

METAR: ESSL 241520Z 31004KT 250V040 CAVOK 24/11 Q1018

Tid: 18:01 (16:01 UTC)

Varsel

Denne rapporten ble laget for 4 timer og 31 minutter siden, klokken 11:30 UTC
Varsel gyldig fra 24. klokken 12 UTC til 24. klokken 16 UTC
Vind 3 kt fra skiftende retning
Sikt 10 km eller mer
ingen skyer under 1500 m og ingen bygeskyer

TAF: ESSL 241130Z 2412/2416 VRB03KT CAVOK

Værobservasjoner og værvarsel for over 4000 flyplasser (METAR- og TAF-rapporter).

Tilgjengelige stasjoner er representert av de røde og gule prikkene på kartet.

Hold musepekeren over prikken for å se navnet på stasjonen.

Klikk så for å se værobservasjoner og -varsler.

For å forandre kartet kan du klikke på den grønne knappen med svart kryss for å zoome inn, på den grønne knappen med strek for å zoome ut, eller på de grønne pilene for å se tilstøtende kart.


METAR-TAF: